sensor_id;sensor_type;location;lat;lon;timestamp;temperature;humidity
26063;DHT22;13837;48.562;12.108;2023-10-09T00:00:34;12.80;99.90
26063;DHT22;13837;48.562;12.108;2023-10-09T00:03:06;12.80;99.90
26063;DHT22;13837;48.562;12.108;2023-10-09T00:05:33;12.80;99.90
26063;DHT22;13837;48.562;12.108;2023-10-09T00:08:11;12.70;99.90
26063;DHT22;13837;48.562;12.108;2023-10-09T00:10:51;12.70;99.90
26063;DHT22;13837;48.562;12.108;2023-10-09T00:13:24;12.70;99.90
26063;DHT22;13837;48.562;12.108;2023-10-09T00:15:57;12.70;99.90
26063;DHT22;13837;48.562;12.108;2023-10-09T00:18:27;12.60;99.90
26063;DHT22;13837;48.562;12.108;2023-10-09T00:20:59;12.60;99.90
26063;DHT22;13837;48.562;12.108;2023-10-09T00:23:38;12.60;99.90
26063;DHT22;13837;48.562;12.108;2023-10-09T00:26:05;12.60;99.90
26063;DHT22;13837;48.562;12.108;2023-10-09T00:28:37;12.50;99.90
26063;DHT22;13837;48.562;12.108;2023-10-09T00:31:07;12.50;99.90
26063;DHT22;13837;48.562;12.108;2023-10-09T00:33:36;12.50;99.90
26063;DHT22;13837;48.562;12.108;2023-10-09T00:36:03;12.50;99.90
26063;DHT22;13837;48.562;12.108;2023-10-09T00:38:35;12.50;99.90
26063;DHT22;13837;48.562;12.108;2023-10-09T00:41:01;12.50;99.90
26063;DHT22;13837;48.562;12.108;2023-10-09T00:43:37;12.50;99.90
26063;DHT22;13837;48.562;12.108;2023-10-09T00:46:05;12.50;99.90
26063;DHT22;13837;48.562;12.108;2023-10-09T00:48:48;12.50;99.90
26063;DHT22;13837;48.562;12.108;2023-10-09T00:51:15;12.50;99.90
26063;DHT22;13837;48.562;12.108;2023-10-09T00:54:10;12.50;99.90
26063;DHT22;13837;48.562;12.108;2023-10-09T00:56:40;12.50;99.90
26063;DHT22;13837;48.562;12.108;2023-10-09T00:59:13;12.50;99.90
26063;DHT22;13837;48.562;12.108;2023-10-09T01:01:45;12.50;99.90
26063;DHT22;13837;48.562;12.108;2023-10-09T01:04:23;12.50;99.90
26063;DHT22;13837;48.562;12.108;2023-10-09T01:06:51;12.40;99.90
26063;DHT22;13837;48.562;12.108;2023-10-09T01:09:36;12.40;99.90
26063;DHT22;13837;48.562;12.108;2023-10-09T01:12:04;12.40;99.90
26063;DHT22;13837;48.562;12.108;2023-10-09T01:14:30;12.40;99.90
26063;DHT22;13837;48.562;12.108;2023-10-09T01:17:04;12.30;99.90
26063;DHT22;13837;48.562;12.108;2023-10-09T01:19:33;12.40;99.90
26063;DHT22;13837;48.562;12.108;2023-10-09T01:21:59;12.30;99.90
26063;DHT22;13837;48.562;12.108;2023-10-09T01:24:39;12.30;99.90
26063;DHT22;13837;48.562;12.108;2023-10-09T01:27:06;12.30;99.90
26063;DHT22;13837;48.562;12.108;2023-10-09T01:29:41;12.30;99.90
26063;DHT22;13837;48.562;12.108;2023-10-09T01:32:11;12.30;99.90
26063;DHT22;13837;48.562;12.108;2023-10-09T01:34:45;12.20;99.90
26063;DHT22;13837;48.562;12.108;2023-10-09T01:37:18;12.20;99.90
26063;DHT22;13837;48.562;12.108;2023-10-09T01:39:55;12.20;99.90
26063;DHT22;13837;48.562;12.108;2023-10-09T01:42:23;12.20;99.90
26063;DHT22;13837;48.562;12.108;2023-10-09T01:45:11;12.20;99.90
26063;DHT22;13837;48.562;12.108;2023-10-09T01:47:39;12.20;99.90
26063;DHT22;13837;48.562;12.108;2023-10-09T01:50:05;12.20;99.90
26063;DHT22;13837;48.562;12.108;2023-10-09T01:52:43;12.20;99.90
26063;DHT22;13837;48.562;12.108;2023-10-09T01:55:09;12.20;99.90
26063;DHT22;13837;48.562;12.108;2023-10-09T01:57:54;12.20;99.90
26063;DHT22;13837;48.562;12.108;2023-10-09T02:00:20;12.10;99.90
26063;DHT22;13837;48.562;12.108;2023-10-09T02:02:50;12.20;99.90
26063;DHT22;13837;48.562;12.108;2023-10-09T02:05:16;12.20;99.90
26063;DHT22;13837;48.562;12.108;2023-10-09T02:07:42;12.10;99.90
26063;DHT22;13837;48.562;12.108;2023-10-09T02:10:23;12.10;99.90
26063;DHT22;13837;48.562;12.108;2023-10-09T02:13:11;12.10;99.90
26063;DHT22;13837;48.562;12.108;2023-10-09T02:15:38;12.10;99.90
26063;DHT22;13837;48.562;12.108;2023-10-09T02:18:11;12.10;99.90
26063;DHT22;13837;48.562;12.108;2023-10-09T02:20:44;12.10;99.90
26063;DHT22;13837;48.562;12.108;2023-10-09T02:23:20;12.10;99.90
26063;DHT22;13837;48.562;12.108;2023-10-09T02:25:47;12.10;99.90
26063;DHT22;13837;48.562;12.108;2023-10-09T02:28:18;12.10;99.90
26063;DHT22;13837;48.562;12.108;2023-10-09T02:30:45;12.10;99.90
26063;DHT22;13837;48.562;12.108;2023-10-09T02:33:14;12.10;99.90
26063;DHT22;13837;48.562;12.108;2023-10-09T02:35:53;12.20;99.90
26063;DHT22;13837;48.562;12.108;2023-10-09T02:38:20;12.10;99.90
26063;DHT22;13837;48.562;12.108;2023-10-09T02:40:52;12.10;99.90
26063;DHT22;13837;48.562;12.108;2023-10-09T02:43:32;12.10;99.90
26063;DHT22;13837;48.562;12.108;2023-10-09T02:46:01;12.10;99.90
26063;DHT22;13837;48.562;12.108;2023-10-09T02:48:40;12.10;99.90
26063;DHT22;13837;48.562;12.108;2023-10-09T02:51:12;12.20;99.90
26063;DHT22;13837;48.562;12.108;2023-10-09T02:53:47;12.30;99.90
26063;DHT22;13837;48.562;12.108;2023-10-09T02:56:15;12.30;99.90
26063;DHT22;13837;48.562;12.108;2023-10-09T02:58:43;12.20;99.90
26063;DHT22;13837;48.562;12.108;2023-10-09T03:01:12;12.20;99.90
26063;DHT22;13837;48.562;12.108;2023-10-09T03:03:41;12.20;99.90
26063;DHT22;13837;48.562;12.108;2023-10-09T03:06:15;12.30;99.90
26063;DHT22;13837;48.562;12.108;2023-10-09T03:08:50;12.30;99.90
26063;DHT22;13837;48.562;12.108;2023-10-09T03:11:16;12.40;99.90
26063;DHT22;13837;48.562;12.108;2023-10-09T03:13:43;12.40;99.90
26063;DHT22;13837;48.562;12.108;2023-10-09T03:16:13;12.40;99.90
26063;DHT22;13837;48.562;12.108;2023-10-09T03:18:50;12.40;99.90
26063;DHT22;13837;48.562;12.108;2023-10-09T03:21:16;12.40;99.90
26063;DHT22;13837;48.562;12.108;2023-10-09T03:23:46;12.40;99.90
26063;DHT22;13837;48.562;12.108;2023-10-09T03:26:16;12.30;99.90
26063;DHT22;13837;48.562;12.108;2023-10-09T03:28:47;12.30;99.90
26063;DHT22;13837;48.562;12.108;2023-10-09T03:31:13;12.30;99.90
26063;DHT22;13837;48.562;12.108;2023-10-09T03:33:39;12.30;99.90
26063;DHT22;13837;48.562;12.108;2023-10-09T03:36:06;12.30;99.90
26063;DHT22;13837;48.562;12.108;2023-10-09T03:38:38;12.30;99.90
26063;DHT22;13837;48.562;12.108;2023-10-09T03:41:07;12.30;99.90
26063;DHT22;13837;48.562;12.108;2023-10-09T03:43:36;12.30;99.90
26063;DHT22;13837;48.562;12.108;2023-10-09T03:46:08;12.20;99.90
26063;DHT22;13837;48.562;12.108;2023-10-09T03:49:00;12.30;99.90
26063;DHT22;13837;48.562;12.108;2023-10-09T03:51:28;12.40;99.90
26063;DHT22;13837;48.562;12.108;2023-10-09T03:53:55;12.30;99.90
26063;DHT22;13837;48.562;12.108;2023-10-09T03:56:21;12.30;99.90
26063;DHT22;13837;48.562;12.108;2023-10-09T03:58:51;12.30;99.90
26063;DHT22;13837;48.562;12.108;2023-10-09T04:01:21;12.30;99.90
26063;DHT22;13837;48.562;12.108;2023-10-09T04:03:55;12.30;99.90
26063;DHT22;13837;48.562;12.108;2023-10-09T04:06:24;12.30;99.90
26063;DHT22;13837;48.562;12.108;2023-10-09T04:08:56;12.30;99.90
26063;DHT22;13837;48.562;12.108;2023-10-09T04:11:24;12.30;99.90
26063;DHT22;13837;48.562;12.108;2023-10-09T04:13:50;12.20;99.90
26063;DHT22;13837;48.562;12.108;2023-10-09T04:16:19;12.20;99.90
26063;DHT22;13837;48.562;12.108;2023-10-09T04:19:00;12.20;99.90
26063;DHT22;13837;48.562;12.108;2023-10-09T04:21:36;12.30;99.90
26063;DHT22;13837;48.562;12.108;2023-10-09T04:24:08;12.30;99.90
26063;DHT22;13837;48.562;12.108;2023-10-09T04:26:38;12.30;99.90
26063;DHT22;13837;48.562;12.108;2023-10-09T04:29:10;12.30;99.90
26063;DHT22;13837;48.562;12.108;2023-10-09T04:31:45;12.20;99.90
26063;DHT22;13837;48.562;12.108;2023-10-09T04:34:23;12.20;99.90
26063;DHT22;13837;48.562;12.108;2023-10-09T04:37:00;12.20;99.90
26063;DHT22;13837;48.562;12.108;2023-10-09T04:39:29;12.20;99.90
26063;DHT22;13837;48.562;12.108;2023-10-09T04:41:56;12.20;99.90
26063;DHT22;13837;48.562;12.108;2023-10-09T04:44:44;12.20;99.90
26063;DHT22;13837;48.562;12.108;2023-10-09T04:47:39;12.20;99.90
26063;DHT22;13837;48.562;12.108;2023-10-09T04:50:15;12.10;99.90
26063;DHT22;13837;48.562;12.108;2023-10-09T04:52:44;12.20;99.90
26063;DHT22;13837;48.562;12.108;2023-10-09T04:55:10;12.20;99.90
26063;DHT22;13837;48.562;12.108;2023-10-09T05:02:50;12.10;99.90
26063;DHT22;13837;48.562;12.108;2023-10-09T05:05:25;12.00;99.90
26063;DHT22;13837;48.562;12.108;2023-10-09T05:08:11;12.00;99.90
26063;DHT22;13837;48.562;12.108;2023-10-09T05:11:00;12.10;99.90
26063;DHT22;13837;48.562;12.108;2023-10-09T05:13:36;12.10;99.90
26063;DHT22;13837;48.562;12.108;2023-10-09T05:16:09;12.10;99.90
26063;DHT22;13837;48.562;12.108;2023-10-09T05:18:44;12.00;99.90
26063;DHT22;13837;48.562;12.108;2023-10-09T05:21:13;12.00;99.90
26063;DHT22;13837;48.562;12.108;2023-10-09T05:23:54;12.00;99.90
26063;DHT22;13837;48.562;12.108;2023-10-09T05:26:49;12.00;99.90
26063;DHT22;13837;48.562;12.108;2023-10-09T05:29:23;12.00;99.90
26063;DHT22;13837;48.562;12.108;2023-10-09T05:31:58;12.00;99.90
26063;DHT22;13837;48.562;12.108;2023-10-09T05:34:43;11.90;99.90
26063;DHT22;13837;48.562;12.108;2023-10-09T05:37:28;11.90;99.90
26063;DHT22;13837;48.562;12.108;2023-10-09T05:40:04;11.90;99.90
26063;DHT22;13837;48.562;12.108;2023-10-09T05:42:42;11.90;99.90
26063;DHT22;13837;48.562;12.108;2023-10-09T05:45:10;12.00;99.90
26063;DHT22;13837;48.562;12.108;2023-10-09T05:47:54;12.00;99.90
26063;DHT22;13837;48.562;12.108;2023-10-09T05:50:24;12.10;99.90
26063;DHT22;13837;48.562;12.108;2023-10-09T05:53:00;12.10;99.90
26063;DHT22;13837;48.562;12.108;2023-10-09T05:55:27;12.10;99.90
26063;DHT22;13837;48.562;12.108;2023-10-09T05:58:11;12.10;99.90
26063;DHT22;13837;48.562;12.108;2023-10-09T06:00:56;12.10;99.90
26063;DHT22;13837;48.562;12.108;2023-10-09T06:03:40;12.00;99.90
26063;DHT22;13837;48.562;12.108;2023-10-09T06:06:19;12.00;99.90
26063;DHT22;13837;48.562;12.108;2023-10-09T06:09:06;12.00;99.90
26063;DHT22;13837;48.562;12.108;2023-10-09T06:11:48;12.10;99.90
26063;DHT22;13837;48.562;12.108;2023-10-09T06:14:15;12.10;99.90
26063;DHT22;13837;48.562;12.108;2023-10-09T06:16:52;12.10;99.90
26063;DHT22;13837;48.562;12.108;2023-10-09T06:19:47;12.10;99.90
26063;DHT22;13837;48.562;12.108;2023-10-09T06:22:14;12.20;99.90
26063;DHT22;13837;48.562;12.108;2023-10-09T06:24:59;12.20;99.90
26063;DHT22;13837;48.562;12.108;2023-10-09T06:27:34;12.30;99.90
26063;DHT22;13837;48.562;12.108;2023-10-09T06:30:00;12.40;99.90
26063;DHT22;13837;48.562;12.108;2023-10-09T06:32:39;12.40;99.90
26063;DHT22;13837;48.562;12.108;2023-10-09T06:35:15;12.40;99.90
26063;DHT22;13837;48.562;12.108;2023-10-09T06:37:57;12.40;99.90
26063;DHT22;13837;48.562;12.108;2023-10-09T06:40:39;12.50;99.90
26063;DHT22;13837;48.562;12.108;2023-10-09T06:43:24;12.70;99.90
26063;DHT22;13837;48.562;12.108;2023-10-09T06:45:54;12.80;99.90
26063;DHT22;13837;48.562;12.108;2023-10-09T06:48:21;12.90;99.90
26063;DHT22;13837;48.562;12.108;2023-10-09T06:51:09;13.00;99.90
26063;DHT22;13837;48.562;12.108;2023-10-09T06:53:44;13.00;99.90
26063;DHT22;13837;48.562;12.108;2023-10-09T06:56:23;13.20;99.90
26063;DHT22;13837;48.562;12.108;2023-10-09T06:59:12;13.30;99.90
26063;DHT22;13837;48.562;12.108;2023-10-09T07:02:06;13.30;99.90
26063;DHT22;13837;48.562;12.108;2023-10-09T07:04:51;13.50;99.90
26063;DHT22;13837;48.562;12.108;2023-10-09T07:07:20;13.60;99.90
26063;DHT22;13837;48.562;12.108;2023-10-09T07:09:49;13.60;99.90
26063;DHT22;13837;48.562;12.108;2023-10-09T07:12:34;13.70;99.90
26063;DHT22;13837;48.562;12.108;2023-10-09T07:15:03;13.70;99.90
26063;DHT22;13837;48.562;12.108;2023-10-09T07:17:50;13.80;99.90
26063;DHT22;13837;48.562;12.108;2023-10-09T07:20:18;13.90;99.90
26063;DHT22;13837;48.562;12.108;2023-10-09T07:23:10;13.90;99.90
26063;DHT22;13837;48.562;12.108;2023-10-09T07:25:42;13.90;99.90
26063;DHT22;13837;48.562;12.108;2023-10-09T07:28:21;14.00;99.90
26063;DHT22;13837;48.562;12.108;2023-10-09T07:31:05;14.00;99.90
26063;DHT22;13837;48.562;12.108;2023-10-09T07:33:34;14.10;99.90
26063;DHT22;13837;48.562;12.108;2023-10-09T07:36:18;14.10;99.90
26063;DHT22;13837;48.562;12.108;2023-10-09T07:39:04;14.10;99.90
26063;DHT22;13837;48.562;12.108;2023-10-09T07:41:39;14.10;99.90
26063;DHT22;13837;48.562;12.108;2023-10-09T07:44:10;14.20;99.90
26063;DHT22;13837;48.562;12.108;2023-10-09T07:46:45;14.20;99.90
26063;DHT22;13837;48.562;12.108;2023-10-09T07:49:39;14.20;99.90
26063;DHT22;13837;48.562;12.108;2023-10-09T07:52:05;14.20;99.90
26063;DHT22;13837;48.562;12.108;2023-10-09T07:54:32;14.20;99.90
26063;DHT22;13837;48.562;12.108;2023-10-09T07:56:58;14.30;99.90
26063;DHT22;13837;48.562;12.108;2023-10-09T07:59:42;14.30;99.90
26063;DHT22;13837;48.562;12.108;2023-10-09T08:02:22;14.50;99.90
26063;DHT22;13837;48.562;12.108;2023-10-09T08:04:58;14.50;99.90
26063;DHT22;13837;48.562;12.108;2023-10-09T08:07:29;14.50;99.90
26063;DHT22;13837;48.562;12.108;2023-10-09T08:10:06;14.60;99.90
26063;DHT22;13837;48.562;12.108;2023-10-09T08:12:45;14.70;99.90
26063;DHT22;13837;48.562;12.108;2023-10-09T08:15:23;14.70;99.90
26063;DHT22;13837;48.562;12.108;2023-10-09T08:17:57;14.80;99.90
26063;DHT22;13837;48.562;12.108;2023-10-09T08:20:30;14.90;99.90
26063;DHT22;13837;48.562;12.108;2023-10-09T08:23:17;14.80;99.90
26063;DHT22;13837;48.562;12.108;2023-10-09T08:26:02;14.90;99.90
26063;DHT22;13837;48.562;12.108;2023-10-09T08:28:39;15.10;99.90
26063;DHT22;13837;48.562;12.108;2023-10-09T08:31:15;15.20;99.90
26063;DHT22;13837;48.562;12.108;2023-10-09T08:33:47;15.30;99.90
26063;DHT22;13837;48.562;12.108;2023-10-09T08:36:27;15.40;99.90
26063;DHT22;13837;48.562;12.108;2023-10-09T08:39:05;15.50;99.90
26063;DHT22;13837;48.562;12.108;2023-10-09T08:41:43;15.60;99.90
26063;DHT22;13837;48.562;12.108;2023-10-09T08:44:11;15.70;99.90
26063;DHT22;13837;48.562;12.108;2023-10-09T08:46:38;15.70;99.90
26063;DHT22;13837;48.562;12.108;2023-10-09T08:49:05;15.70;99.90
26063;DHT22;13837;48.562;12.108;2023-10-09T08:51:33;15.80;99.90
26063;DHT22;13837;48.562;12.108;2023-10-09T08:54:00;15.90;99.90
26063;DHT22;13837;48.562;12.108;2023-10-09T08:56:26;15.90;99.90
26063;DHT22;13837;48.562;12.108;2023-10-09T08:59:01;16.00;99.90
26063;DHT22;13837;48.562;12.108;2023-10-09T09:01:28;16.10;99.90
26063;DHT22;13837;48.562;12.108;2023-10-09T09:03:58;16.20;99.90
26063;DHT22;13837;48.562;12.108;2023-10-09T09:06:25;16.40;99.90
26063;DHT22;13837;48.562;12.108;2023-10-09T09:08:51;16.50;99.90
26063;DHT22;13837;48.562;12.108;2023-10-09T09:11:25;16.60;99.90
26063;DHT22;13837;48.562;12.108;2023-10-09T09:16:25;16.80;99.90
26063;DHT22;13837;48.562;12.108;2023-10-09T09:19:03;17.00;99.90
26063;DHT22;13837;48.562;12.108;2023-10-09T09:21:34;17.00;99.90
26063;DHT22;13837;48.562;12.108;2023-10-09T09:24:06;17.10;99.90
26063;DHT22;13837;48.562;12.108;2023-10-09T09:27:06;17.20;99.90
26063;DHT22;13837;48.562;12.108;2023-10-09T09:29:39;17.40;99.90
26063;DHT22;13837;48.562;12.108;2023-10-09T09:32:09;17.40;99.90
26063;DHT22;13837;48.562;12.108;2023-10-09T09:34:51;17.60;99.90
26063;DHT22;13837;48.562;12.108;2023-10-09T09:37:25;17.80;99.90
26063;DHT22;13837;48.562;12.108;2023-10-09T09:40:01;18.00;99.90
26063;DHT22;13837;48.562;12.108;2023-10-09T09:42:30;18.20;99.90
26063;DHT22;13837;48.562;12.108;2023-10-09T09:45:00;18.30;99.90
26063;DHT22;13837;48.562;12.108;2023-10-09T09:47:29;18.40;99.90
26063;DHT22;13837;48.562;12.108;2023-10-09T09:50:01;18.50;99.90
26063;DHT22;13837;48.562;12.108;2023-10-09T09:52:50;18.60;99.90
26063;DHT22;13837;48.562;12.108;2023-10-09T09:55:25;18.70;99.90
26063;DHT22;13837;48.562;12.108;2023-10-09T09:57:57;18.70;99.90
26063;DHT22;13837;48.562;12.108;2023-10-09T10:00:27;18.80;99.90
26063;DHT22;13837;48.562;12.108;2023-10-09T10:03:15;18.90;99.90
26063;DHT22;13837;48.562;12.108;2023-10-09T10:05:43;18.90;99.90
26063;DHT22;13837;48.562;12.108;2023-10-09T10:08:16;19.00;99.90
26063;DHT22;13837;48.562;12.108;2023-10-09T10:10:48;19.00;99.90
26063;DHT22;13837;48.562;12.108;2023-10-09T10:13:21;19.10;99.90
26063;DHT22;13837;48.562;12.108;2023-10-09T10:16:13;19.20;99.90
26063;DHT22;13837;48.562;12.108;2023-10-09T10:18:58;19.20;99.90
26063;DHT22;13837;48.562;12.108;2023-10-09T10:21:47;19.30;99.90
26063;DHT22;13837;48.562;12.108;2023-10-09T10:27:17;19.40;99.90
26063;DHT22;13837;48.562;12.108;2023-10-09T10:32:58;19.60;99.90
26063;DHT22;13837;48.562;12.108;2023-10-09T10:35:35;19.70;99.90
26063;DHT22;13837;48.562;12.108;2023-10-09T10:38:33;19.70;99.90
26063;DHT22;13837;48.562;12.108;2023-10-09T10:43:40;19.90;99.90
26063;DHT22;13837;48.562;12.108;2023-10-09T10:46:19;20.00;99.90
26063;DHT22;13837;48.562;12.108;2023-10-09T10:49:07;19.90;99.90
26063;DHT22;13837;48.562;12.108;2023-10-09T10:51:36;19.90;99.90
26063;DHT22;13837;48.562;12.108;2023-10-09T10:54:09;19.90;99.90
26063;DHT22;13837;48.562;12.108;2023-10-09T10:56:53;20.00;99.90
26063;DHT22;13837;48.562;12.108;2023-10-09T10:59:22;20.20;99.90
26063;DHT22;13837;48.562;12.108;2023-10-09T11:01:49;20.10;99.90
26063;DHT22;13837;48.562;12.108;2023-10-09T11:04:41;20.10;99.90
26063;DHT22;13837;48.562;12.108;2023-10-09T11:07:08;20.00;99.90
26063;DHT22;13837;48.562;12.108;2023-10-09T11:12:27;20.10;99.90
26063;DHT22;13837;48.562;12.108;2023-10-09T11:15:06;20.10;99.90
26063;DHT22;13837;48.562;12.108;2023-10-09T11:17:36;20.10;99.90
26063;DHT22;13837;48.562;12.108;2023-10-09T11:20:05;20.00;99.90
26063;DHT22;13837;48.562;12.108;2023-10-09T11:22:54;19.90;99.90
26063;DHT22;13837;48.562;12.108;2023-10-09T11:25:38;19.90;99.90
26063;DHT22;13837;48.562;12.108;2023-10-09T11:28:17;19.80;99.90
26063;DHT22;13837;48.562;12.108;2023-10-09T11:31:10;19.70;99.90
26063;DHT22;13837;48.562;12.108;2023-10-09T11:34:03;19.70;99.90
26063;DHT22;13837;48.562;12.108;2023-10-09T11:36:34;19.80;99.90
26063;DHT22;13837;48.562;12.108;2023-10-09T11:39:02;19.80;99.90
26063;DHT22;13837;48.562;12.108;2023-10-09T11:41:44;19.70;99.90
26063;DHT22;13837;48.562;12.108;2023-10-09T11:44:10;19.70;99.90
26063;DHT22;13837;48.562;12.108;2023-10-09T11:46:58;19.70;99.90
26063;DHT22;13837;48.562;12.108;2023-10-09T11:49:24;19.70;99.90
26063;DHT22;13837;48.562;12.108;2023-10-09T11:52:09;19.50;99.90
26063;DHT22;13837;48.562;12.108;2023-10-09T11:54:35;19.50;99.90
26063;DHT22;13837;48.562;12.108;2023-10-09T11:57:02;19.40;99.90
26063;DHT22;13837;48.562;12.108;2023-10-09T11:59:28;19.40;99.90
26063;DHT22;13837;48.562;12.108;2023-10-09T12:02:00;19.40;99.90
26063;DHT22;13837;48.562;12.108;2023-10-09T12:04:26;19.30;99.90
26063;DHT22;13837;48.562;12.108;2023-10-09T12:06:56;19.30;99.90
26063;DHT22;13837;48.562;12.108;2023-10-09T12:09:33;19.20;99.90
26063;DHT22;13837;48.562;12.108;2023-10-09T12:12:06;19.20;99.90
26063;DHT22;13837;48.562;12.108;2023-10-09T12:14:33;19.20;99.90
26063;DHT22;13837;48.562;12.108;2023-10-09T12:17:00;19.20;99.90
26063;DHT22;13837;48.562;12.108;2023-10-09T12:19:38;19.20;99.90
26063;DHT22;13837;48.562;12.108;2023-10-09T12:22:05;19.20;99.90
26063;DHT22;13837;48.562;12.108;2023-10-09T12:24:33;19.10;99.90
26063;DHT22;13837;48.562;12.108;2023-10-09T12:26:59;19.10;99.90
26063;DHT22;13837;48.562;12.108;2023-10-09T12:29:26;19.00;99.90
26063;DHT22;13837;48.562;12.108;2023-10-09T12:31:59;19.10;99.90
26063;DHT22;13837;48.562;12.108;2023-10-09T12:34:25;19.00;99.90
26063;DHT22;13837;48.562;12.108;2023-10-09T12:36:55;19.00;99.90
26063;DHT22;13837;48.562;12.108;2023-10-09T12:39:23;19.00;99.90
26063;DHT22;13837;48.562;12.108;2023-10-09T12:41:50;19.00;99.90
26063;DHT22;13837;48.562;12.108;2023-10-09T12:44:19;18.90;99.90
26063;DHT22;13837;48.562;12.108;2023-10-09T12:46:48;18.90;99.90
26063;DHT22;13837;48.562;12.108;2023-10-09T12:49:22;18.90;99.90
26063;DHT22;13837;48.562;12.108;2023-10-09T12:51:54;18.80;99.90
26063;DHT22;13837;48.562;12.108;2023-10-09T12:54:20;18.70;99.90
26063;DHT22;13837;48.562;12.108;2023-10-09T12:56:50;18.70;99.90
26063;DHT22;13837;48.562;12.108;2023-10-09T12:59:15;18.70;99.90
26063;DHT22;13837;48.562;12.108;2023-10-09T13:01:41;18.60;99.90
26063;DHT22;13837;48.562;12.108;2023-10-09T13:04:10;18.50;99.90
26063;DHT22;13837;48.562;12.108;2023-10-09T13:06:42;18.40;99.90
26063;DHT22;13837;48.562;12.108;2023-10-09T13:09:12;18.30;99.90
26063;DHT22;13837;48.562;12.108;2023-10-09T13:11:42;18.20;99.90
26063;DHT22;13837;48.562;12.108;2023-10-09T13:14:09;18.20;99.90
26063;DHT22;13837;48.562;12.108;2023-10-09T13:16:43;18.10;99.90
26063;DHT22;13837;48.562;12.108;2023-10-09T13:19:08;18.00;99.90
26063;DHT22;13837;48.562;12.108;2023-10-09T13:21:37;18.00;99.90
26063;DHT22;13837;48.562;12.108;2023-10-09T13:24:06;18.00;99.90
26063;DHT22;13837;48.562;12.108;2023-10-09T13:26:39;18.00;99.90
26063;DHT22;13837;48.562;12.108;2023-10-09T13:29:07;17.90;99.90
26063;DHT22;13837;48.562;12.108;2023-10-09T13:31:37;18.00;99.90
26063;DHT22;13837;48.562;12.108;2023-10-09T13:34:04;18.00;99.90
26063;DHT22;13837;48.562;12.108;2023-10-09T13:36:32;18.00;99.90
26063;DHT22;13837;48.562;12.108;2023-10-09T13:39:07;18.00;99.90
26063;DHT22;13837;48.562;12.108;2023-10-09T13:44:24;18.00;99.90
26063;DHT22;13837;48.562;12.108;2023-10-09T13:46:53;18.10;99.90
26063;DHT22;13837;48.562;12.108;2023-10-09T13:49:19;18.10;99.90
26063;DHT22;13837;48.562;12.108;2023-10-09T13:51:48;18.20;99.90
26063;DHT22;13837;48.562;12.108;2023-10-09T13:54:16;18.20;99.90
26063;DHT22;13837;48.562;12.108;2023-10-09T13:56:54;18.20;99.90
26063;DHT22;13837;48.562;12.108;2023-10-09T13:59:21;18.20;99.90
26063;DHT22;13837;48.562;12.108;2023-10-09T14:01:49;18.20;99.90
26063;DHT22;13837;48.562;12.108;2023-10-09T14:04:15;18.30;99.90
26063;DHT22;13837;48.562;12.108;2023-10-09T14:06:44;18.30;99.90
26063;DHT22;13837;48.562;12.108;2023-10-09T14:09:11;18.30;99.90
26063;DHT22;13837;48.562;12.108;2023-10-09T14:11:55;18.40;99.90
26063;DHT22;13837;48.562;12.108;2023-10-09T14:14:39;18.40;99.90
26063;DHT22;13837;48.562;12.108;2023-10-09T14:17:09;18.50;99.90
26063;DHT22;13837;48.562;12.108;2023-10-09T14:19:42;18.50;99.90
26063;DHT22;13837;48.562;12.108;2023-10-09T14:22:16;18.40;99.90
26063;DHT22;13837;48.562;12.108;2023-10-09T14:24:46;18.50;99.90
26063;DHT22;13837;48.562;12.108;2023-10-09T14:27:15;18.50;99.90
26063;DHT22;13837;48.562;12.108;2023-10-09T14:29:49;18.40;99.90
26063;DHT22;13837;48.562;12.108;2023-10-09T14:32:21;18.40;99.90
26063;DHT22;13837;48.562;12.108;2023-10-09T14:34:54;18.40;99.90
26063;DHT22;13837;48.562;12.108;2023-10-09T14:37:20;18.40;99.90
26063;DHT22;13837;48.562;12.108;2023-10-09T14:39:49;18.40;99.90
26063;DHT22;13837;48.562;12.108;2023-10-09T14:42:16;18.40;99.90
26063;DHT22;13837;48.562;12.108;2023-10-09T14:44:43;18.40;99.90
26063;DHT22;13837;48.562;12.108;2023-10-09T14:47:10;18.40;99.90
26063;DHT22;13837;48.562;12.108;2023-10-09T14:49:37;18.40;99.90
26063;DHT22;13837;48.562;12.108;2023-10-09T14:52:04;18.40;99.90
26063;DHT22;13837;48.562;12.108;2023-10-09T14:54:34;18.50;99.90
26063;DHT22;13837;48.562;12.108;2023-10-09T14:57:00;18.40;99.90
26063;DHT22;13837;48.562;12.108;2023-10-09T14:59:25;18.40;99.90
26063;DHT22;13837;48.562;12.108;2023-10-09T15:01:51;18.50;99.90
26063;DHT22;13837;48.562;12.108;2023-10-09T15:04:19;18.40;99.90
26063;DHT22;13837;48.562;12.108;2023-10-09T15:06:48;18.40;99.90
26063;DHT22;13837;48.562;12.108;2023-10-09T15:09:15;18.50;99.90
26063;DHT22;13837;48.562;12.108;2023-10-09T15:11:54;18.50;99.90
26063;DHT22;13837;48.562;12.108;2023-10-09T15:14:20;18.40;99.90
26063;DHT22;13837;48.562;12.108;2023-10-09T15:16:49;18.40;99.90
26063;DHT22;13837;48.562;12.108;2023-10-09T15:19:15;18.50;99.90
26063;DHT22;13837;48.562;12.108;2023-10-09T15:21:42;18.50;99.90
26063;DHT22;13837;48.562;12.108;2023-10-09T15:24:12;18.40;99.90
26063;DHT22;13837;48.562;12.108;2023-10-09T15:26:51;18.50;99.90
26063;DHT22;13837;48.562;12.108;2023-10-09T15:29:23;18.50;99.90
26063;DHT22;13837;48.562;12.108;2023-10-09T15:31:57;18.50;99.90
26063;DHT22;13837;48.562;12.108;2023-10-09T15:34:36;18.50;99.90
26063;DHT22;13837;48.562;12.108;2023-10-09T15:37:02;18.60;99.90
26063;DHT22;13837;48.562;12.108;2023-10-09T15:39:35;18.60;99.90
26063;DHT22;13837;48.562;12.108;2023-10-09T15:42:01;18.60;99.90
26063;DHT22;13837;48.562;12.108;2023-10-09T15:44:32;18.60;99.90
26063;DHT22;13837;48.562;12.108;2023-10-09T15:47:02;18.60;99.90
26063;DHT22;13837;48.562;12.108;2023-10-09T15:49:29;18.60;99.90
26063;DHT22;13837;48.562;12.108;2023-10-09T15:51:59;18.60;99.90
26063;DHT22;13837;48.562;12.108;2023-10-09T15:54:27;18.60;99.90
26063;DHT22;13837;48.562;12.108;2023-10-09T15:56:54;18.60;99.90
26063;DHT22;13837;48.562;12.108;2023-10-09T15:59:21;18.60;99.90
26063;DHT22;13837;48.562;12.108;2023-10-09T16:01:47;18.60;99.90
26063;DHT22;13837;48.562;12.108;2023-10-09T16:04:12;18.60;99.90
26063;DHT22;13837;48.562;12.108;2023-10-09T16:06:40;18.60;99.90
26063;DHT22;13837;48.562;12.108;2023-10-09T16:09:07;18.60;99.90
26063;DHT22;13837;48.562;12.108;2023-10-09T16:11:38;18.60;99.90
26063;DHT22;13837;48.562;12.108;2023-10-09T16:14:05;18.60;99.90